Relevés horaires Beauvechain (Belgique)


Relevés horaires à Beauvechain - Dimanche 30 Juill. 2017
Heure UTC1 Température [°C] Vent [km/h] Hum. [%] Pres.4 [hPa] Visi. [Km] Nébu. [octa] Préc.5 [mm] Cond.
2m. Res. Ros. Dir.2 Vit. Moy. Raf.3
23:00 17.1 17.1 10.5 NNO 1.9 -- 1.9 65 1012.7(0.8/3h) 20 -- -- --
22:00 17.8 17.8 10.5 NNO 1.9 -- 1.9 62 1012.5(1.2/3h) 20 -- -- --
21:00 18.2 18.2 10.4 NNO 1.9 -- 9.3 60 1012(1.4/3h) 20 -- -- --
20:00 18.3 18.3 10.4 NNO 1.9 -- 5.6 60 1011.7(1.2/3h) 20 -- -- --
19:00 19.6 19.6 10.3 O 5.6 -- 9.3 55 1011(0.6/3h) 20 -- -- --
18:00 21.2 21.2 10.7 O 5.6 -- 25.9 51 1010.3(0.1/3h) 20 -- -- --
17:00 21.8 21.8 11.4 O 7.4 -- 14.8 52 1010.2(0.3/3h) 20 -- -- --
16:00 23.2 23.2 11.6 OSO 9.3 -- 18.5 48 1010.2(0.6/3h) 20 -- -- --
15:00 23.7 23.7 11.2 OSO 11.1 -- 25.9 45 1010.1(1.4/3h) 20 -- -- --
14:00 23.4 23.4 12.1 OSO 14.8 -- 24.1 49 1009.7(1.2/3h) 20 -- -- --
13:00 23.4 23.4 13.4 OSO 14.8 -- 25.9 53 1009.3(1.9/3h) 20 -- -- --
12:00 23.5 23.5 13.0 SO 18.5 -- 29.6 52 1008.6(1.6/3h) 20 -- -- --
11:00 21.0 21.0 14.3 OSO 14.8 -- 29.6 66 1008.6(1.9/3h) 20 -- -- --
10:00 22.6 22.6 11.7 SO 20.4 -- 29.6 50 1007.5(1.2/3h) 20 -- -- --
09:00 22.3 22.3 13.5 SO 16.7 -- 25.9 57 1007(0.8/3h) 20 -- -- --
08:00 22.3 22.3 14.2 SSO 14.8 -- 25.9 60 1006.5(0.3/3h) 20 -- -- --
07:00 21.3 21.3 14.9 SSO 13.0 -- 24.1 67 1006.2(0.3/3h) 20 -- -- --
06:00 20.8 20.8 14.6 SSO 11.1 -- 18.5 68 1006.2(0.2/3h) 20 -- -- NA
05:00 20.0 20.0 14.6 SSO 9.3 11.1 18.5 71 1006.2(-0.2/3h) 20 -- -- --
04:00 20.4 20.4 14.7 SSO 7.4 -- 14.8 70 1006(-1.2/3h) 20 -- -- --
03:00 21.2 21.2 15.2 SSO 7.4 -- 16.7 69 1006(-1.5/3h) 20 -- -- NA
02:00 21.8 21.8 15.4 S 5.6 -- 9.3 67 1006.3(-1.5/3h) 20 -- -- --
01:00 22.7 22.7 15.5 SSO 7.4 -- 11.1 64 1007.1(-1.1/3h) 20 -- -- NA
00:00 22.7 22.7 15.8 SSO 7.4 -- 14.8 65 1007.5(-1.0/3h) 20 -- -- --

1 Coordinated Universal Time. Actuellement il est 15:00 locale et 14:00 UTC.

2 Le vent souffle depuis la direction indiquée vers la direction oposée.

3 Les rafales max. sont disponible 40 min après l'heure du relevé.

4 Pour les stations d'altitude (plus de 600m) le géopotentiel du niveau le plus proche de la pression obligatoire est indiqué.

5 Les stations disposant d'un diffuseur peuvent indiquer "trace". Cela signifie que des précipitations ont touchés le sol mais que la quantité est inférieure à 0.1 mm.

Récapitulatif de la journée
Température [°C] Vent [km/h] Ensoleillement4 [h] Precipitations totale5 [mm] Pression [Hpa]
Min1 Max.2 Moy.3 Max. Min Max.
19.8 24.2 11.1 29.6 0 h 0 min 0 1006.0 1012.7

1 Température minimale relevée entre 18:00 UTC la veille et 18:00 UTC le jour donné.

2 Température maximale relevée entre 06:00 UTC le jour donné et 06:00 UTC le lendemain.

3 Vent moyen de la journée basé sur les relevés horaires.

4 Ensoleillement en heures relevé entre 06:00 UTC la veille et 06:00 UTC le jour donné.

5 Précipitations totales tombées entre 06:00 UTC la jour donné et 06:00 UTC le lendemain.

Graphiques horaires